createdAt,value
2019-05-17T00:03:23.901Z,63.53
2019-05-17T00:06:54.126Z,63.62
2019-05-17T00:10:26.372Z,63.73
2019-05-17T00:13:57.010Z,63.82
2019-05-17T00:17:27.137Z,63.94
2019-05-17T00:20:57.265Z,64.03
2019-05-17T00:24:27.391Z,64.13
2019-05-17T00:27:57.573Z,64.22
2019-05-17T00:31:27.739Z,64.35
2019-05-17T00:34:57.942Z,64.44
2019-05-17T00:38:28.099Z,64.52
2019-05-17T00:41:58.161Z,64.62
2019-05-17T00:45:28.249Z,64.69
2019-05-17T00:48:58.322Z,64.78
2019-05-17T00:52:28.395Z,64.88
2019-05-17T00:55:58.583Z,64.96
2019-05-17T00:59:28.583Z,65.06
2019-05-17T01:00:17.168Z,65.09
2019-05-17T01:03:47.804Z,65.18
2019-05-17T01:07:17.956Z,65.28
2019-05-17T01:10:48.038Z,65.36
2019-05-17T01:14:18.124Z,65.46
2019-05-17T01:17:48.143Z,65.57
2019-05-17T01:21:18.204Z,65.63
2019-05-17T01:24:48.154Z,65.72
2019-05-17T01:28:18.202Z,65.82
2019-05-17T01:31:48.342Z,65.92
2019-05-17T01:35:18.391Z,65.99
2019-05-17T01:38:48.316Z,66.07
2019-05-17T01:42:18.447Z,66.16
2019-05-17T01:45:48.548Z,66.23
2019-05-17T01:49:18.602Z,66.3
2019-05-17T01:52:48.645Z,66.38
2019-05-17T01:56:18.711Z,66.45
2019-05-17T01:59:49.209Z,66.55
2019-05-17T02:03:19.367Z,66.61
2019-05-17T02:06:49.360Z,66.71
2019-05-17T02:10:19.825Z,66.79
2019-05-17T02:13:49.950Z,66.86
2019-05-17T02:17:20.116Z,66.95
2019-05-17T02:20:50.315Z,67.04
2019-05-17T02:24:20.394Z,67.12
2019-05-17T02:27:52.310Z,67.2
2019-05-17T02:31:24.750Z,67.28
2019-05-17T02:34:55.078Z,67.36
2019-05-17T02:38:25.180Z,67.42
2019-05-17T02:41:55.188Z,67.5
2019-05-17T02:45:25.403Z,67.57
2019-05-17T02:48:55.525Z,67.65
2019-05-17T02:52:25.580Z,67.7
2019-05-17T02:55:55.769Z,67.77
2019-05-17T02:59:25.956Z,67.83
2019-05-17T03:00:16.531Z,67.84
2019-05-17T03:03:46.658Z,67.92
2019-05-17T03:07:16.886Z,67.99
2019-05-17T03:10:46.999Z,68.04
2019-05-17T03:14:16.934Z,68.09
2019-05-17T03:17:46.987Z,68.18
2019-05-17T03:21:16.956Z,68.25
2019-05-17T03:24:47.002Z,68.29
2019-05-17T03:28:16.997Z,68.38
2019-05-17T03:31:58.055Z,68.41
2019-05-17T03:35:36.593Z,68.48
2019-05-17T03:39:08.232Z,68.53
2019-05-17T03:42:38.409Z,68.57
2019-05-17T03:46:08.482Z,68.62
2019-05-17T03:49:39.413Z,68.66
2019-05-17T03:53:12.882Z,68.67
2019-05-17T03:56:43.517Z,68.71
2019-05-17T04:00:15.259Z,68.72
2019-05-17T04:03:45.319Z,68.76
2019-05-17T04:07:15.399Z,68.77
2019-05-17T04:10:45.415Z,68.77
2019-05-17T04:14:15.477Z,68.76
2019-05-17T04:17:45.626Z,68.78
2019-05-17T04:21:15.723Z,68.76
2019-05-17T04:24:45.791Z,68.74
2019-05-17T04:28:15.982Z,68.71
2019-05-17T04:31:46.094Z,68.69
2019-05-17T04:35:16.287Z,68.64
2019-05-17T04:38:46.438Z,68.61
2019-05-17T04:42:16.458Z,68.54
2019-05-17T04:45:46.625Z,68.52
2019-05-17T04:49:16.876Z,68.43
2019-05-17T04:52:46.935Z,68.36
2019-05-17T04:56:17.061Z,68.28
2019-05-17T04:59:47.200Z,68.2
2019-05-17T05:00:16.202Z,68.18
2019-05-17T05:03:46.388Z,68.11
2019-05-17T05:07:16.501Z,68.03
2019-05-17T05:10:46.599Z,67.93
2019-05-17T05:14:16.752Z,67.82
2019-05-17T05:17:46.913Z,67.71
2019-05-17T05:21:17.009Z,67.59
2019-05-17T05:24:47.145Z,67.5
2019-05-17T05:28:17.883Z,67.36
2019-05-17T05:31:47.913Z,67.24
2019-05-17T05:35:18.048Z,67.13
2019-05-17T05:38:48.067Z,67
2019-05-17T05:42:18.130Z,66.87
2019-05-17T05:45:48.239Z,66.68
2019-05-17T05:49:18.354Z,66.58
2019-05-17T05:52:48.414Z,66.44
2019-05-17T05:56:18.415Z,66.32
2019-05-17T05:59:48.721Z,66.18
2019-05-17T06:03:18.778Z,66.03
2019-05-17T06:06:48.904Z,65.89
2019-05-17T06:10:19.248Z,65.76
2019-05-17T06:13:49.276Z,65.61
2019-05-17T06:17:21.517Z,65.47
2019-05-17T06:20:52.377Z,65.31
2019-05-17T06:24:22.725Z,65.14
2019-05-17T06:27:52.817Z,64.97
2019-05-17T06:31:24.115Z,64.8
2019-05-17T06:34:54.311Z,64.63
2019-05-17T06:38:24.365Z,64.42
2019-05-17T06:41:54.372Z,64.28
2019-05-17T06:45:24.509Z,64.12
2019-05-17T06:48:54.597Z,63.97
2019-05-17T06:52:24.710Z,63.77
2019-05-17T06:55:54.755Z,63.6
2019-05-17T06:59:24.850Z,63.39
2019-05-17T07:00:19.733Z,63.39
2019-05-17T07:03:53.113Z,63.14
2019-05-17T07:07:26.360Z,62.99
2019-05-17T07:10:56.960Z,62.82
2019-05-17T07:14:29.399Z,62.69
2019-05-17T07:18:00.048Z,62.54
2019-05-17T07:21:30.311Z,62.41
2019-05-17T07:25:00.337Z,62.27
2019-05-17T07:28:30.506Z,62.14
2019-05-17T07:32:00.558Z,61.98
2019-05-17T07:35:30.717Z,61.8
2019-05-17T07:39:00.916Z,61.58
2019-05-17T07:42:30.977Z,61.37
2019-05-17T07:46:01.175Z,61.16
2019-05-17T07:49:31.321Z,60.92
2019-05-17T07:53:01.371Z,60.66
2019-05-17T07:56:31.593Z,60.39
2019-05-17T08:00:02.453Z,60.12
2019-05-17T08:03:32.588Z,59.81
2019-05-17T08:07:02.777Z,59.55
2019-05-17T08:10:32.869Z,59.38
2019-05-17T08:14:03.205Z,59.22
2019-05-17T08:17:33.297Z,59.15
2019-05-17T08:21:03.414Z,59.15
2019-05-17T08:24:33.494Z,59.18
2019-05-17T08:28:03.543Z,59.26
2019-05-17T08:31:33.652Z,59.39
2019-05-17T08:35:04.348Z,59.54
2019-05-17T08:38:34.463Z,59.7
2019-05-17T08:42:04.591Z,59.91
2019-05-17T08:45:34.653Z,60.12
2019-05-17T08:49:04.708Z,60.34
2019-05-17T08:52:34.846Z,60.59
2019-05-17T08:56:04.942Z,60.8
2019-05-17T08:59:35.061Z,61.04
2019-05-17T09:00:15.878Z,61.08
2019-05-17T09:03:45.983Z,61.31
2019-05-17T09:07:16.052Z,61.53
2019-05-17T09:10:46.131Z,61.74
2019-05-17T09:14:16.237Z,61.93
2019-05-17T09:17:46.346Z,62.12
2019-05-17T09:21:16.428Z,62.25
2019-05-17T09:24:46.579Z,62.44
2019-05-17T09:28:16.772Z,62.59
2019-05-17T09:31:46.801Z,62.76
2019-05-17T09:35:16.845Z,62.94
2019-05-17T09:38:49.291Z,63.12
2019-05-17T09:42:20.942Z,63.3
2019-05-17T09:45:51.250Z,63.49
2019-05-17T09:49:21.286Z,63.7
2019-05-17T09:52:51.295Z,63.91
2019-05-17T09:56:21.398Z,64.09
2019-05-17T09:59:51.516Z,64.28
2019-05-17T10:03:23.959Z,64.48
2019-05-17T10:06:54.334Z,64.66
2019-05-17T10:10:24.439Z,64.84
2019-05-17T10:13:54.388Z,65.01
2019-05-17T10:17:24.530Z,65.19
2019-05-17T10:20:54.620Z,65.36
2019-05-17T10:24:37.749Z,65.55
2019-05-17T10:28:10.031Z,65.75
2019-05-17T10:31:40.427Z,65.93
2019-05-17T10:35:10.791Z,66.12
2019-05-17T10:38:40.944Z,66.3
2019-05-17T10:42:11.006Z,66.48
2019-05-17T10:45:41.128Z,66.66
2019-05-17T10:49:11.174Z,66.8
2019-05-17T10:52:41.416Z,66.93
2019-05-17T10:56:11.366Z,67.02
2019-05-17T10:59:41.458Z,67.14
2019-05-17T11:00:15.897Z,67.17
2019-05-17T11:03:46.066Z,67.29
2019-05-17T11:07:16.202Z,67.35
2019-05-17T11:10:46.214Z,67.38
2019-05-17T11:14:16.412Z,67.39
2019-05-17T11:17:46.509Z,67.35
2019-05-17T11:21:16.637Z,67.26
2019-05-17T11:24:46.700Z,67.18
2019-05-17T11:28:16.765Z,67.15
2019-05-17T11:31:46.839Z,67.1
2019-05-17T11:35:16.861Z,67.11
2019-05-17T11:38:47.002Z,67.14
2019-05-17T11:42:17.121Z,67.16
2019-05-17T11:45:47.304Z,67.19
2019-05-17T11:49:17.402Z,67.19
2019-05-17T11:52:47.428Z,67.19
2019-05-17T11:56:17.460Z,67.17
2019-05-17T11:59:47.606Z,67.2
2019-05-17T12:03:17.665Z,67.24
2019-05-17T12:06:47.847Z,67.26
2019-05-17T12:10:18.168Z,67.28
2019-05-17T12:13:48.246Z,67.33
2019-05-17T12:17:18.367Z,67.34
2019-05-17T12:20:48.323Z,67.4
2019-05-17T12:24:18.438Z,67.42
2019-05-17T12:27:48.581Z,67.5
2019-05-17T12:31:18.619Z,67.56
2019-05-17T12:34:48.696Z,67.62
2019-05-17T12:38:18.744Z,67.71
2019-05-17T12:41:48.911Z,67.79
2019-05-17T12:45:19.186Z,67.88
2019-05-17T12:48:49.301Z,67.96
2019-05-17T12:52:19.304Z,68.05
2019-05-17T12:55:49.293Z,68.12
2019-05-17T12:59:19.368Z,68.19
2019-05-17T13:00:16.072Z,68.19
2019-05-17T13:03:46.177Z,68.29
2019-05-17T13:07:16.262Z,68.37
2019-05-17T13:10:46.366Z,68.43
2019-05-17T13:14:16.488Z,68.51
2019-05-17T13:17:46.596Z,68.59
2019-05-17T13:21:16.776Z,68.65
2019-05-17T13:24:46.939Z,68.73
2019-05-17T13:28:17.120Z,68.79
2019-05-17T13:31:47.200Z,68.85
2019-05-17T13:35:17.375Z,68.9
2019-05-17T13:38:47.457Z,68.95
2019-05-17T13:42:17.577Z,68.98
2019-05-17T13:45:47.914Z,69.03
2019-05-17T13:49:18.035Z,69.07
2019-05-17T13:52:48.183Z,69.11
2019-05-17T13:56:18.335Z,69.16
2019-05-17T13:59:48.424Z,69.2
2019-05-17T14:03:18.690Z,69.26
2019-05-17T14:06:48.709Z,69.33
2019-05-17T14:10:27.725Z,69.39
2019-05-17T14:13:59.990Z,69.43
2019-05-17T14:17:30.110Z,69.45
2019-05-17T14:21:00.167Z,69.49
2019-05-17T14:24:30.203Z,69.49
2019-05-17T14:28:00.332Z,69.47
2019-05-17T14:31:30.442Z,69.4
2019-05-17T14:35:00.539Z,69.32
2019-05-17T14:38:30.671Z,69.23
2019-05-17T14:42:00.721Z,69.11
2019-05-17T14:45:30.892Z,68.97
2019-05-17T14:49:01.131Z,68.8
2019-05-17T14:52:31.119Z,68.64
2019-05-17T14:56:01.180Z,68.46
2019-05-17T14:59:31.224Z,68.26
2019-05-17T15:00:15.883Z,68.23
2019-05-17T15:03:46.157Z,68.03
2019-05-17T15:07:16.353Z,67.86
2019-05-17T15:10:46.473Z,67.68
2019-05-17T15:14:16.542Z,67.5
2019-05-17T15:17:46.700Z,67.3
2019-05-17T15:21:16.695Z,67.12
2019-05-17T15:24:46.739Z,66.93
2019-05-17T15:28:16.769Z,66.72
2019-05-17T15:31:46.754Z,66.5
2019-05-17T15:35:16.927Z,66.3
2019-05-17T15:38:46.942Z,66.09
2019-05-17T15:42:17.072Z,65.89
2019-05-17T15:45:47.133Z,65.69
2019-05-17T15:49:17.162Z,65.48
2019-05-17T15:52:47.308Z,65.32
2019-05-17T15:56:17.398Z,65.13
2019-05-17T15:59:47.390Z,64.96
2019-05-17T16:03:17.565Z,64.82
2019-05-17T16:06:47.767Z,64.65
2019-05-17T16:10:18.081Z,64.5
2019-05-17T16:13:48.092Z,64.38
2019-05-17T16:17:18.170Z,64.25
2019-05-17T16:20:48.304Z,64.11
2019-05-17T16:24:18.498Z,64.01
2019-05-17T16:27:48.622Z,63.88
2019-05-17T16:31:18.741Z,63.81
2019-05-17T16:34:48.846Z,63.74
2019-05-17T16:38:18.935Z,63.66
2019-05-17T16:41:49.062Z,63.62
2019-05-17T16:45:19.227Z,63.54
2019-05-17T16:48:49.385Z,63.52
2019-05-17T16:52:19.491Z,63.5
2019-05-17T16:55:49.584Z,63.48
2019-05-17T16:59:19.740Z,63.49
2019-05-17T17:00:33.934Z,63.5
2019-05-17T17:04:04.316Z,63.47
2019-05-17T17:07:34.396Z,63.5
2019-05-17T17:11:04.592Z,63.53
2019-05-17T17:14:34.768Z,63.54
2019-05-17T17:18:04.927Z,63.58
2019-05-17T17:21:34.977Z,63.64
2019-05-17T17:25:05.275Z,63.67
2019-05-17T17:28:35.440Z,63.72
2019-05-17T17:32:19.443Z,63.75
2019-05-17T17:35:51.452Z,63.78
2019-05-17T17:39:21.503Z,63.84
2019-05-17T17:42:51.550Z,63.87
2019-05-17T17:46:21.665Z,63.92
2019-05-17T17:49:51.747Z,63.93
2019-05-17T17:53:21.943Z,63.96
2019-05-17T17:56:52.056Z,63.99
2019-05-17T18:00:22.405Z,64.01
2019-05-17T18:03:52.430Z,64.02
2019-05-17T18:07:22.432Z,64.02
2019-05-17T18:10:52.507Z,64
2019-05-17T18:14:22.548Z,63.96
2019-05-17T18:17:52.686Z,63.92
2019-05-17T18:21:22.725Z,63.87
2019-05-17T18:24:52.804Z,63.79
2019-05-17T18:28:22.810Z,63.69
2019-05-17T18:31:52.965Z,63.58
2019-05-17T18:35:23.046Z,63.48
2019-05-17T18:38:53.646Z,63.35
2019-05-17T18:42:23.783Z,63.23
2019-05-17T18:45:53.873Z,63.11
2019-05-17T18:49:23.968Z,62.96
2019-05-17T18:52:54.076Z,62.83
2019-05-17T18:56:24.166Z,62.69
2019-05-17T18:59:54.267Z,62.57
2019-05-17T19:00:16.364Z,62.56
2019-05-17T19:03:46.496Z,62.43
2019-05-17T19:07:16.569Z,62.29
2019-05-17T19:10:46.715Z,62.17
2019-05-17T19:14:16.863Z,62.03
2019-05-17T19:17:46.970Z,61.91
2019-05-17T19:21:17.005Z,61.8
2019-05-17T19:24:47.060Z,61.68
2019-05-17T19:28:17.189Z,61.57
2019-05-17T19:31:47.276Z,61.46
2019-05-17T19:35:17.505Z,61.34
2019-05-17T19:38:47.646Z,61.21
2019-05-17T19:42:17.642Z,61.09
2019-05-17T19:45:47.684Z,60.98
2019-05-17T19:49:17.826Z,60.89
2019-05-17T19:52:47.909Z,60.83
2019-05-17T19:56:17.978Z,60.76
2019-05-17T19:59:48.141Z,60.73
2019-05-17T20:03:18.170Z,60.68
2019-05-17T20:06:48.234Z,60.64
2019-05-17T20:10:19.960Z,60.64
2019-05-17T20:13:50.035Z,60.63
2019-05-17T20:17:20.047Z,60.62
2019-05-17T20:20:50.255Z,60.63
2019-05-17T20:24:20.423Z,60.65
2019-05-17T20:27:50.583Z,60.68
2019-05-17T20:31:20.559Z,60.7
2019-05-17T20:34:50.694Z,60.75
2019-05-17T20:38:20.875Z,60.78
2019-05-17T20:41:51.028Z,60.87
2019-05-17T20:45:32.799Z,60.95
2019-05-17T20:49:03.845Z,61.04
2019-05-17T20:52:34.002Z,61.15
2019-05-17T20:56:04.134Z,61.28
2019-05-17T20:59:34.305Z,61.41
2019-05-17T21:00:16.669Z,61.45
2019-05-17T21:03:46.791Z,61.61
2019-05-17T21:07:16.957Z,61.77
2019-05-17T21:10:47.016Z,61.93
2019-05-17T21:14:16.998Z,62.13
2019-05-17T21:17:47.072Z,62.31
2019-05-17T21:21:17.133Z,62.5
2019-05-17T21:24:47.179Z,62.67
2019-05-17T21:28:17.181Z,62.87
2019-05-17T21:31:47.239Z,63.07
2019-05-17T21:35:17.319Z,63.27
2019-05-17T21:38:47.356Z,63.51
2019-05-17T21:42:17.446Z,63.72
2019-05-17T21:46:01.139Z,63.91
2019-05-17T21:49:33.429Z,64.11
2019-05-17T21:53:03.636Z,64.32
2019-05-17T21:56:33.852Z,64.51
2019-05-17T22:00:09.103Z,64.7
2019-05-17T22:03:39.229Z,64.86
2019-05-17T22:07:09.538Z,65.04
2019-05-17T22:10:39.620Z,65.17
2019-05-17T22:14:09.698Z,65.35
2019-05-17T22:17:39.886Z,65.46
2019-05-17T22:21:10.029Z,65.6
2019-05-17T22:24:40.005Z,65.72
2019-05-17T22:28:10.036Z,65.87
2019-05-17T22:31:40.073Z,66.01
2019-05-17T22:35:10.296Z,66.11
2019-05-17T22:38:40.352Z,66.27
2019-05-17T22:42:10.436Z,66.39
2019-05-17T22:45:40.579Z,66.51
2019-05-17T22:49:10.830Z,66.61
2019-05-17T22:52:40.976Z,66.74
2019-05-17T22:56:11.016Z,66.86
2019-05-17T22:59:41.154Z,67.01
2019-05-17T23:00:16.016Z,67.02
2019-05-17T23:03:46.143Z,67.16
2019-05-17T23:07:16.285Z,67.3
2019-05-17T23:10:46.318Z,67.45
2019-05-17T23:14:16.356Z,67.6
2019-05-17T23:17:46.458Z,67.75
2019-05-17T23:21:16.614Z,67.89
2019-05-17T23:24:46.624Z,68.06
2019-05-17T23:28:16.615Z,68.22
2019-05-17T23:31:46.750Z,68.35
2019-05-17T23:35:16.969Z,68.5
2019-05-17T23:38:47.143Z,68.63
2019-05-17T23:42:17.161Z,68.75
2019-05-17T23:45:47.396Z,68.9
2019-05-17T23:49:17.481Z,69.02
2019-05-17T23:52:47.503Z,69.13
2019-05-17T23:56:17.535Z,69.24
2019-05-17T23:59:47.555Z,69.31
